< < Back
Terminal Aerodrome Forecast


Current Version              Previous Versions:   1  2  3  4  5  6  7  8  9  

Terminal Aerodrome Forecast

622
FTUS42 KMLB 272100 AAA
TAFMCO
TAF AMD
KMCO 272141Z 2722/2818 26007KT P6SM VCSH SCT040 SCT250
     FM272300 24005KT P6SM FEW040 SCT100 SCT250
     FM281400 26010KT P6SM FEW040 SCT250=



Latest METAR

217
SAUS70 KWBC 281000
MTRMCO
METAR KMCO 280953Z 22005KT 10SM SCT250 26/24 A3004 RMK AO2 SLP172
T02560239


USA.gov is the U.S. government's official web portal to all federal, state and local government web resources and services.